Time;durP1;ratioP1;P1;durP2;ratioP2;P2;SDS_P1;SDS_P2;PMS_P1;PMS_P2;Temp;Humidity;BMP_temperature;BMP_pressure;BME280_temperature;BME280_humidity;BME280_pressure;Samples;Min_cycle;Max_cycle;Signal;HPM_P1;HPM_P2
2022/04/07 00:01:34;;;;;;;7.10;6.40;;;9.00;27.30;;;;;;5071225;28;20206;-70
2022/04/07 00:04:01;;;;;;;6.80;6.20;;;9.10;20.20;;;;;;5071168;28;20247;-71
2022/04/07 00:06:29;;;;;;;6.23;5.33;;;9.20;8.10;;;;;;5070821;28;20822;-69
2022/04/07 00:08:57;;;;;;;6.30;5.60;;;9.30;3.30;;;;;;5071104;28;20210;-71
2022/04/07 00:11:24;;;;;;;8.87;6.00;;;9.40;1.00;;;;;;5070354;28;20230;-72
2022/04/07 00:13:51;;;;;;;5.97;5.13;;;9.50;1.00;;;;;;5071045;28;20206;-71
2022/04/07 00:16:18;;;;;;;6.87;6.10;;;9.50;1.00;;;;;;5067432;28;20263;-71
2022/04/07 00:18:46;;;;;;;6.57;5.97;;;9.60;1.00;;;;;;5050931;28;20230;-71
2022/04/07 00:21:24;;;;;;;6.43;5.23;;;9.60;1.00;;;;;;5050511;28;20203;-71
2022/04/07 00:23:53;;;;;;;7.87;6.00;;;9.60;1.00;;;;;;5050769;28;20255;-71
2022/04/07 00:26:20;;;;;;;5.83;5.13;;;9.60;1.00;;;;;;5050649;28;20260;-71
2022/04/07 00:28:47;;;;;;;6.10;4.70;;;9.60;1.00;;;;;;5050934;28;20260;-71
2022/04/07 00:31:14;;;;;;;6.97;5.23;;;9.60;1.00;;;;;;5049722;28;20230;-71
2022/04/07 00:33:41;;;;;;;6.53;5.73;;;9.50;1.00;;;;;;5050633;28;20203;-73
2022/04/07 00:36:08;;;;;;;10.47;6.93;;;9.60;1.00;;;;;;5051116;28;20248;-74
2022/04/07 00:38:35;;;;;;;6.47;5.60;;;9.50;1.00;;;;;;5050925;28;20207;-74
2022/04/07 00:41:04;;;;;;;6.60;5.33;;;9.50;1.00;;;;;;5050690;28;20568;-73
2022/04/07 00:43:32;;;;;;;5.57;4.97;;;9.50;1.00;;;;;;5050434;28;20358;-71
2022/04/07 00:45:59;;;;;;;6.37;5.77;;;9.60;1.00;;;;;;5050717;28;20211;-71
2022/04/07 00:48:27;;;;;;;6.20;5.30;;;9.60;1.00;;;;;;5050212;28;20207;-72
2022/04/07 00:50:54;;;;;;;7.77;5.07;;;9.50;1.00;;;;;;5050722;28;20203;-72
2022/04/07 00:53:21;;;;;;;6.63;5.50;;;9.60;1.00;;;;;;5050287;28;20252;-73
2022/04/07 00:55:50;;;;;;;5.37;4.87;;;9.60;1.00;;;;;;5050498;28;20206;-73
2022/04/07 00:58:19;;;;;;;5.10;4.60;;;9.60;1.00;;;;;;5050049;28;20618;-72
2022/04/07 01:00:46;;;;;;;7.10;5.07;;;9.60;1.00;;;;;;5050329;28;20718;-70
2022/04/07 01:03:14;;;;;;;5.67;5.17;;;9.60;1.00;;;;;;5050271;28;20215;-70
2022/04/07 01:05:41;;;;;;;5.10;4.60;;;9.70;1.00;;;;;;5050608;28;20260;-68
2022/04/07 01:08:09;;;;;;;7.83;5.10;;;9.70;1.00;;;;;;5050387;28;20199;-68
2022/04/07 01:10:37;;;;;;;4.90;4.40;;;9.70;1.00;;;;;;5050729;28;20253;-70
2022/04/07 01:13:04;;;;;;;6.27;4.57;;;9.60;1.00;;;;;;5050695;28;20258;-71
2022/04/07 01:15:33;;;;;;;6.93;4.80;;;9.70;1.00;;;;;;5049844;28;20203;-70
2022/04/07 01:18:01;;;;;;;5.53;4.60;;;9.60;1.00;;;;;;5050527;28;20238;-68
2022/04/07 01:20:28;;;;;;;5.70;4.57;;;9.60;1.00;;;;;;5049887;28;20215;-70
2022/04/07 01:22:57;;;;;;;6.00;4.67;;;9.50;1.00;;;;;;5050068;28;20620;-71
2022/04/07 01:25:27;;;;;;;5.80;4.27;;;9.50;1.00;;;;;;5049978;28;20253;-70
2022/04/07 01:27:55;;;;;;;5.27;4.77;;;9.50;1.00;;;;;;5049980;28;20252;-71
2022/04/07 01:30:22;;;;;;;5.57;4.17;;;9.50;1.00;;;;;;5049778;28;20207;-72
2022/04/07 01:32:53;;;;;;;5.73;4.63;;;9.70;1.00;;;;;;5050276;28;20282;-71
2022/04/07 01:35:21;;;;;;;4.93;4.27;;;9.60;1.00;;;;;;5049448;28;20214;-70
2022/04/07 01:37:51;;;;;;;7.57;5.23;;;9.60;1.00;;;;;;5050102;28;20580;-71
2022/04/07 01:40:22;;;;;;;7.80;5.03;;;9.60;1.00;;;;;;5049702;28;20606;-70
2022/04/07 01:42:53;;;;;;;5.77;4.17;;;9.50;1.00;;;;;;5050326;28;20762;-69
2022/04/07 01:45:21;;;;;;;5.23;4.63;;;9.50;1.00;;;;;;5053237;28;20217;-71
2022/04/07 01:47:50;;;;;;;4.73;4.27;;;9.50;1.00;;;;;;5053691;28;20260;-71
2022/04/07 01:50:20;;;;;;;5.70;4.47;;;9.50;1.00;;;;;;5053311;28;20548;-71
2022/04/07 01:52:48;;;;;;;6.83;4.47;;;9.50;1.00;;;;;;5053349;28;20714;-71
2022/04/07 01:55:16;;;;;;;6.07;5.00;;;9.40;1.00;;;;;;5053248;28;20205;-71
2022/04/07 01:57:45;;;;;;;5.57;4.40;;;9.40;1.00;;;;;;5053515;28;20744;-71
2022/04/07 02:00:14;;;;;;;4.93;4.40;;;9.40;1.00;;;;;;5053317;28;20203;-70
2022/04/07 02:02:41;;;;;;;5.17;4.67;;;9.40;1.00;;;;;;5053405;28;20203;-70
2022/04/07 02:05:11;;;;;;;6.57;4.30;;;9.50;1.00;;;;;;5053234;28;20203;-70
2022/04/07 02:07:39;;;;;;;6.83;4.80;;;9.50;1.00;;;;;;5053405;28;20233;-69
2022/04/07 02:10:08;;;;;;;5.40;4.60;;;9.50;1.00;;;;;;5053843;28;20203;-69
2022/04/07 02:12:37;;;;;;;4.97;4.30;;;9.50;1.00;;;;;;5053192;28;20710;-70
2022/04/07 02:15:04;;;;;;;4.93;4.43;;;9.60;1.00;;;;;;5053615;28;20301;-70
2022/04/07 02:17:33;;;;;;;4.33;3.90;;;9.50;1.00;;;;;;5058377;28;20433;-71
2022/04/07 02:20:05;;;;;;;5.67;4.33;;;9.60;1.00;;;;;;5052502;28;20214;-71
2022/04/07 02:22:32;;;;;;;4.83;4.43;;;9.50;1.00;;;;;;5057804;28;20210;-71
2022/04/07 02:24:59;;;;;;;5.63;4.47;;;9.60;1.00;;;;;;5073113;28;20681;-71
2022/04/07 02:27:33;;;;;;;5.70;4.43;;;9.50;1.00;;;;;;5059828;28;20207;-71
2022/04/07 02:30:00;;;;;;;8.77;3.80;;;9.50;1.00;;;;;;5052775;28;20301;-71
2022/04/07 02:32:28;;;;;;;4.97;4.23;;;9.50;1.00;;;;;;5052523;28;20230;-72
2022/04/07 02:34:57;;;;;;;5.27;4.77;;;9.50;1.00;;;;;;5052767;28;20199;-72
2022/04/07 02:37:25;;;;;;;5.40;5.00;;;9.50;1.00;;;;;;5052671;28;20249;-71
2022/04/07 02:39:52;;;;;;;7.97;4.27;;;9.50;1.00;;;;;;5067467;28;20301;-73
2022/04/07 02:42:19;;;;;;;9.17;4.93;;;9.60;1.00;;;;;;5072492;28;20206;-72
2022/04/07 02:44:47;;;;;;;6.50;4.77;;;9.60;1.00;;;;;;5072800;28;20221;-72
2022/04/07 02:47:14;;;;;;;5.03;4.47;;;9.60;1.00;;;;;;5072352;28;20206;-73
2022/04/07 02:49:41;;;;;;;4.87;4.20;;;9.60;1.00;;;;;;5071853;28;20250;-73
2022/04/07 02:52:11;;;;;;;5.57;4.40;;;9.60;1.00;;;;;;5072380;28;20238;-72
2022/04/07 02:54:38;;;;;;;5.77;4.40;;;9.60;1.00;;;;;;5071407;28;20206;-72
2022/04/07 02:57:06;;;;;;;4.47;3.77;;;9.70;1.00;;;;;;5072244;28;20251;-72
2022/04/07 02:59:34;;;;;;;5.03;3.73;;;9.70;1.00;;;;;;5072174;28;20198;-72
2022/04/07 03:02:01;;;;;;;5.33;3.70;;;9.70;1.00;;;;;;5072367;28;20687;-72
2022/04/07 03:04:28;;;;;;;5.67;3.93;;;9.70;1.00;;;;;;5071767;28;20412;-71
2022/04/07 03:06:55;;;;;;;3.97;3.57;;;9.60;1.00;;;;;;5072442;28;20198;-71
2022/04/07 03:09:23;;;;;;;7.47;3.90;;;9.60;1.00;;;;;;5072006;28;20206;-71
2022/04/07 03:11:50;;;;;;;5.00;3.93;;;9.60;1.00;;;;;;5072150;28;20284;-70
2022/04/07 03:14:17;;;;;;;5.03;3.20;;;9.50;1.00;;;;;;5071652;28;20574;-71
2022/04/07 03:16:48;;;;;;;3.27;2.93;;;9.50;1.00;;;;;;5072154;28;20351;-72
2022/04/07 03:19:16;;;;;;;4.97;3.70;;;9.60;1.00;;;;;;5071478;28;20229;-72
2022/04/07 03:21:43;;;;;;;4.77;3.37;;;9.60;1.00;;;;;;5072084;28;20202;-72
2022/04/07 03:24:10;;;;;;;5.07;3.70;;;9.60;1.00;;;;;;5071633;28;20204;-72
2022/04/07 03:26:39;;;;;;;3.73;3.43;;;9.60;1.00;;;;;;5072065;28;20264;-72
2022/04/07 03:29:06;;;;;;;3.40;3.10;;;9.70;1.00;;;;;;5072108;28;20206;-72
2022/04/07 03:31:33;;;;;;;3.67;3.37;;;9.70;1.00;;;;;;5071994;28;20198;-73
2022/04/07 03:34:01;;;;;;;3.67;3.33;;;9.70;1.00;;;;;;5071357;28;20709;-73
2022/04/07 03:36:28;;;;;;;4.47;3.63;;;9.80;1.00;;;;;;5071256;28;20592;-73
2022/04/07 03:38:55;;;;;;;5.73;3.53;;;9.80;1.00;;;;;;5071525;28;20202;-72
2022/04/07 03:41:22;;;;;;;5.07;4.03;;;9.80;1.00;;;;;;5071128;28;20202;-72
2022/04/07 03:43:50;;;;;;;3.27;3.00;;;9.80;1.00;;;;;;5071777;28;20280;-74
2022/04/07 03:46:21;;;;;;;4.67;2.77;;;9.80;1.00;;;;;;5071293;28;20290;-74
2022/04/07 03:48:49;;;;;;;3.90;2.60;;;9.70;1.00;;;;;;5071253;28;20688;-72
2022/04/07 03:51:16;;;;;;;3.50;3.07;;;9.70;1.00;;;;;;5070946;28;20208;-72
2022/04/07 03:53:43;;;;;;;2.90;2.60;;;9.70;1.00;;;;;;5071224;28;20229;-72
2022/04/07 03:56:10;;;;;;;3.07;2.77;;;9.70;1.00;;;;;;5071216;28;20202;-71
2022/04/07 03:58:37;;;;;;;3.63;2.47;;;9.70;1.00;;;;;;5071306;28;20218;-72
2022/04/07 04:01:05;;;;;;;3.37;2.77;;;9.70;1.00;;;;;;5071672;28;20569;-72
2022/04/07 04:03:32;;;;;;;3.03;2.83;;;9.70;1.00;;;;;;5070360;28;20228;-72
2022/04/07 04:06:00;;;;;;;6.10;3.20;;;9.70;1.00;;;;;;5070920;28;20653;-72
2022/04/07 04:08:27;;;;;;;2.67;2.47;;;9.70;1.00;;;;;;5070695;28;20202;-72
2022/04/07 04:10:53;;;;;;;4.57;3.17;;;9.70;1.00;;;;;;5071036;28;20206;-72
2022/04/07 04:13:20;;;;;;;9.30;3.80;;;9.70;1.00;;;;;;5070810;28;20234;-70
2022/04/07 04:15:47;;;;;;;3.33;2.87;;;9.70;1.00;;;;;;5070847;28;20209;-70
2022/04/07 04:18:16;;;;;;;3.27;2.97;;;9.70;1.00;;;;;;5067478;28;20650;-71
2022/04/07 04:20:43;;;;;;;4.70;3.53;;;9.60;1.00;;;;;;5070913;28;20203;-71
2022/04/07 04:23:10;;;;;;;2.97;2.50;;;9.60;1.00;;;;;;5070754;28;20202;-71
2022/04/07 04:25:37;;;;;;;2.93;2.60;;;9.60;1.00;;;;;;5071173;28;20673;-73
2022/04/07 04:28:04;;;;;;;4.90;2.87;;;9.70;1.00;;;;;;5071147;28;20202;-72
2022/04/07 04:30:31;;;;;;;2.67;2.47;;;9.80;1.00;;;;;;5070531;28;20719;-73
2022/04/07 04:32:58;;;;;;;5.93;2.77;;;10.00;1.00;;;;;;5070751;28;20229;-72
2022/04/07 04:35:27;;;;;;;2.97;2.67;;;10.10;1.00;;;;;;5069596;28;20665;-71
2022/04/07 04:37:54;;;;;;;2.83;2.40;;;10.30;1.00;;;;;;5057500;28;20207;-72
2022/04/07 04:40:21;;;;;;;3.17;2.63;;;10.30;1.00;;;;;;5069531;28;20206;-72
2022/04/07 04:42:48;;;;;;;3.30;2.97;;;10.20;1.00;;;;;;5062713;28;20210;-72
2022/04/07 04:45:15;;;;;;;3.13;2.20;;;10.10;1.00;;;;;;5070048;28;20210;-72
2022/04/07 04:47:42;;;;;;;3.37;2.83;;;9.90;1.00;;;;;;5070486;28;20202;-72
2022/04/07 04:50:12;;;;;;;2.90;2.70;;;9.80;1.00;;;;;;5070181;28;20206;-73
2022/04/07 04:52:41;;;;;;;2.93;2.53;;;9.90;1.00;;;;;;5069760;28;20236;-73
2022/04/07 04:55:08;;;;;;;4.97;2.97;;;10.00;1.00;;;;;;5068233;28;20742;-72
2022/04/07 04:57:35;;;;;;;3.13;2.77;;;10.30;1.00;;;;;;5070794;28;20311;-75
2022/04/07 05:00:03;;;;;;;4.67;2.63;;;10.20;1.00;;;;;;5069161;28;20225;-71
2022/04/07 05:02:30;;;;;;;3.53;3.07;;;10.20;1.00;;;;;;5068858;28;20260;-72
2022/04/07 05:04:58;;;;;;;2.80;2.33;;;10.10;1.00;;;;;;5069973;28;20210;-72
2022/04/07 05:07:25;;;;;;;2.30;2.10;;;10.30;1.00;;;;;;5068958;28;20658;-73
2022/04/07 05:09:57;;;;;;;3.17;2.47;;;10.30;1.00;;;;;;5069908;28;20639;-72
2022/04/07 05:12:24;;;;;;;4.07;2.30;;;10.10;1.00;;;;;;5069882;28;20210;-74
2022/04/07 05:14:51;;;;;;;2.53;1.83;;;10.10;1.00;;;;;;5069585;28;20745;-71
2022/04/07 05:17:19;;;;;;;3.00;2.50;;;10.10;1.00;;;;;;5069413;28;20267;-72
2022/04/07 05:19:46;;;;;;;3.20;2.30;;;10.00;1.00;;;;;;5073531;28;20206;-79
2022/04/07 05:22:14;;;;;;;3.80;1.90;;;10.20;1.00;;;;;;5073571;28;20248;-72
2022/04/07 05:24:41;;;;;;;2.57;1.90;;;10.20;1.00;;;;;;5073807;28;20260;-80
2022/04/07 05:27:09;;;;;;;1.87;1.67;;;10.40;1.00;;;;;;5074080;28;20218;-77
2022/04/07 05:29:36;;;;;;;5.90;2.47;;;10.30;1.00;;;;;;5073955;28;20202;-78
2022/04/07 05:32:04;;;;;;;3.23;2.37;;;10.30;1.00;;;;;;5073976;28;20208;-81
2022/04/07 05:34:32;;;;;;;1.90;1.67;;;10.40;1.00;;;;;;5073917;28;20257;-80
2022/04/07 05:36:59;;;;;;;3.43;2.40;;;10.40;1.00;;;;;;5074297;28;20211;-74
2022/04/07 05:39:26;;;;;;;1.90;1.70;;;10.20;1.00;;;;;;5063525;28;20211;-71
2022/04/07 05:41:53;;;;;;;2.33;2.13;;;10.20;1.00;;;;;;5061455;28;20206;-70
2022/04/07 05:44:21;;;;;;;2.43;2.17;;;10.30;1.00;;;;;;5071818;28;20206;-71
2022/04/07 05:46:48;;;;;;;3.47;2.10;;;10.20;1.00;;;;;;5072348;28;20199;-71
2022/04/07 05:49:15;;;;;;;3.60;2.23;;;10.30;1.00;;;;;;5072644;28;20214;-71
2022/04/07 05:51:42;;;;;;;3.07;1.93;;;10.30;1.00;;;;;;5073778;28;20256;-74
2022/04/07 05:54:09;;;;;;;3.47;2.10;;;10.50;1.00;;;;;;5073493;28;20278;-71
2022/04/07 05:56:36;;;;;;;4.27;2.57;;;10.50;1.00;;;;;;5073309;28;20563;-72
2022/04/07 05:59:03;;;;;;;4.17;2.23;;;10.60;1.00;;;;;;5073557;28;20293;-72
2022/04/07 06:01:31;;;;;;;3.50;2.17;;;10.60;1.00;;;;;;5073494;28;20210;-73
2022/04/07 06:03:58;;;;;;;44.67;28.40;;;10.60;1.00;;;;;;5073485;28;20670;-70
2022/04/07 06:06:25;;;;;;;14.17;11.07;;;10.80;1.00;;;;;;5073128;28;20591;-71
2022/04/07 06:08:52;;;;;;;6.60;4.73;;;10.80;1.00;;;;;;5072698;28;20214;-71
2022/04/07 06:11:19;;;;;;;12.73;7.43;;;10.80;1.00;;;;;;5072706;28;20206;-72
2022/04/07 06:13:46;;;;;;;6.40;4.07;;;10.80;1.00;;;;;;5073289;28;20238;-71
2022/04/07 06:16:14;;;;;;;4.73;3.10;;;10.90;1.00;;;;;;5072893;28;20202;-77
2022/04/07 06:18:42;;;;;;;3.63;2.70;;;10.90;1.00;;;;;;5070384;28;20260;-72
2022/04/07 06:21:09;;;;;;;3.90;2.20;;;11.00;1.00;;;;;;5072181;28;20275;-73
2022/04/07 06:23:36;;;;;;;3.93;2.63;;;11.00;1.00;;;;;;5073492;28;20205;-70
2022/04/07 06:26:03;;;;;;;4.23;2.17;;;11.00;1.00;;;;;;5072971;28;20264;-70
2022/04/07 06:28:30;;;;;;;2.87;2.20;;;11.00;1.00;;;;;;5072653;28;20206;-72
2022/04/07 06:30:57;;;;;;;2.33;1.83;;;11.20;1.00;;;;;;5073117;28;20198;-73
2022/04/07 06:33:24;;;;;;;3.53;2.17;;;11.20;1.00;;;;;;5072670;28;20230;-74
2022/04/07 06:35:53;;;;;;;5.20;1.73;;;11.10;1.00;;;;;;5073129;28;20203;-74
2022/04/07 06:38:20;;;;;;;4.90;1.83;;;11.30;1.00;;;;;;5072457;28;20210;-78
2022/04/07 06:40:47;;;;;;;2.33;2.13;;;11.40;1.00;;;;;;5072624;28;20214;-80
2022/04/07 06:43:14;;;;;;;3.33;1.93;;;11.40;1.00;;;;;;5072612;28;20209;-76
2022/04/07 06:45:41;;;;;;;2.17;1.67;;;11.50;1.00;;;;;;5072827;28;20624;-78
2022/04/07 06:48:09;;;;;;;2.93;2.43;;;11.50;1.00;;;;;;5072566;28;20719;-74
2022/04/07 06:50:36;;;;;;;3.87;1.73;;;11.20;1.00;;;;;;5072923;28;20206;-75
2022/04/07 06:53:04;;;;;;;1.93;1.77;;;10.90;1.00;;;;;;5072653;28;20248;-75
2022/04/07 06:55:31;;;;;;;1.97;1.60;;;10.80;1.00;;;;;;5072152;28;20198;-74
2022/04/07 06:58:00;;;;;;;3.17;2.00;;;10.90;1.00;;;;;;5072348;28;20685;-74
2022/04/07 07:00:29;;;;;;;11.80;7.97;;;11.10;1.00;;;;;;5072140;28;20199;-75
2022/04/07 07:02:58;;;;;;;19.37;11.90;;;11.30;1.00;;;;;;5072501;28;20237;-74
2022/04/07 07:05:26;;;;;;;4.70;3.80;;;11.40;1.00;;;;;;5072030;28;20202;-75
2022/04/07 07:07:54;;;;;;;3.97;3.00;;;11.30;1.00;;;;;;5072099;28;20654;-75
2022/04/07 07:10:23;;;;;;;5.53;2.13;;;11.20;1.00;;;;;;5071724;28;20692;-75
2022/04/07 07:12:51;;;;;;;4.73;1.60;;;11.40;1.00;;;;;;5072437;28;20202;-75
2022/04/07 07:15:21;;;;;;;2.30;1.63;;;11.50;1.00;;;;;;5071819;28;20242;-74
2022/04/07 07:17:48;;;;;;;3.27;1.47;;;11.60;1.00;;;;;;5072003;28;20202;-71
2022/04/07 07:20:15;;;;;;;3.63;1.33;;;11.70;1.00;;;;;;5071653;28;20202;-70
2022/04/07 07:22:43;;;;;;;1.47;1.37;;;11.70;1.00;;;;;;5071989;28;20199;-71
2022/04/07 07:25:11;;;;;;;1.00;0.87;;;11.70;1.00;;;;;;5071823;28;20206;-72
2022/04/07 07:27:41;;;;;;;5.87;1.63;;;11.80;1.00;;;;;;5072225;28;20209;-72
2022/04/07 07:30:10;;;;;;;1.90;1.40;;;11.80;1.00;;;;;;5071746;28;20198;-71
2022/04/07 07:32:37;;;;;;;2.87;1.70;;;12.00;1.00;;;;;;5072050;28;20723;-72
2022/04/07 07:35:05;;;;;;;2.23;1.73;;;12.20;1.00;;;;;;5071729;28;20287;-71
2022/04/07 07:37:32;;;;;;;2.90;1.70;;;12.40;1.00;;;;;;5071751;28;20202;-72
2022/04/07 07:40:04;;;;;;;1.40;1.30;;;12.40;1.00;;;;;;5071687;28;20563;-73
2022/04/07 07:42:32;;;;;;;4.70;2.33;;;12.60;1.00;;;;;;5071121;28;20209;-72
2022/04/07 07:45:00;;;;;;;1.37;1.10;;;12.70;1.00;;;;;;5071633;28;20351;-70
2022/04/07 07:47:27;;;;;;;3.57;1.43;;;12.90;1.00;;;;;;5071174;28;20206;-75
2022/04/07 07:49:54;;;;;;;1.35;1.00;;;13.30;1.00;;;;;;5071521;28;20666;-72
2022/04/07 07:52:21;;;;;;;1.42;1.08;;;13.60;1.00;;;;;;5070898;28;20734;-71
2022/04/07 07:54:48;;;;;;;2.05;1.85;;;13.60;1.00;;;;;;5071126;28;20655;-72
2022/04/07 07:57:15;;;;;;;2.67;1.27;;;13.50;1.00;;;;;;5070957;28;20268;-71
2022/04/07 07:59:42;;;;;;;1.02;0.93;;;13.70;1.00;;;;;;5071334;28;20244;-72
2022/04/07 08:02:10;;;;;;;2.58;1.27;;;13.70;1.00;;;;;;5071448;28;20206;-72
2022/04/07 08:04:37;;;;;;;2.75;1.10;;;13.80;1.00;;;;;;5071763;28;20625;-71
2022/04/07 08:07:05;;;;;;;3.17;1.30;;;14.10;1.00;;;;;;5071101;28;20198;-72
2022/04/07 08:09:31;;;;;;;3.13;1.13;;;14.70;1.00;;;;;;5071266;28;20678;-76
2022/04/07 08:11:58;;;;;;;2.50;0.68;;;15.00;1.00;;;;;;5071357;28;20662;-74
2022/04/07 08:14:25;;;;;;;1.10;0.63;;;15.20;1.00;;;;;;5070682;28;20770;-76
2022/04/07 08:16:52;;;;;;;0.60;0.50;;;15.50;1.00;;;;;;5071443;28;20259;-76
2022/04/07 08:19:21;;;;;;;2.70;0.70;;;15.60;1.00;;;;;;5068126;28;20257;-75
2022/04/07 08:21:48;;;;;;;0.70;0.30;;;15.50;1.00;;;;;;5053827;28;20217;-74
2022/04/07 08:24:16;;;;;;;2.35;0.50;;;15.60;1.00;;;;;;5050664;28;20257;-75
2022/04/07 08:26:43;;;;;;;2.33;0.57;;;15.60;1.00;;;;;;5051046;28;20234;-78
2022/04/07 08:29:10;;;;;;;2.75;0.68;;;15.50;1.00;;;;;;5051285;28;20199;-77
2022/04/07 08:31:37;;;;;;;2.88;1.20;;;15.30;1.00;;;;;;5051367;28;20256;-75
2022/04/07 08:34:04;;;;;;;2.35;0.60;;;15.10;1.00;;;;;;5050986;28;20277;-75
2022/04/07 08:36:33;;;;;;;1.80;0.68;;;14.90;1.00;;;;;;5050583;28;20693;-75
2022/04/07 08:39:00;;;;;;;1.25;0.68;;;14.80;1.00;;;;;;5050814;28;20560;-76
2022/04/07 08:41:31;;;;;;;2.00;0.70;;;14.80;1.00;;;;;;5050545;28;20256;-77
2022/04/07 08:43:58;;;;;;;2.60;0.93;;;14.80;1.00;;;;;;5050672;28;20302;-77
2022/04/07 08:46:28;;;;;;;1.02;0.70;;;15.00;1.00;;;;;;5050773;28;20278;-74
2022/04/07 08:48:56;;;;;;;0.85;0.80;;;15.00;1.00;;;;;;5050870;28;20290;-75
2022/04/07 08:51:26;;;;;;;1.08;0.93;;;15.20;1.00;;;;;;5050162;28;20256;-74
2022/04/07 08:53:55;;;;;;;1.35;0.75;;;15.40;1.00;;;;;;5052859;28;20698;-72
2022/04/07 08:56:23;;;;;;;2.60;1.08;;;15.30;1.00;;;;;;5054762;28;20206;-72
2022/04/07 08:58:50;;;;;;;2.83;0.70;;;15.50;1.00;;;;;;5054573;28;20206;-72
2022/04/07 09:01:17;;;;;;;1.65;0.40;;;15.60;1.00;;;;;;5054480;28;20260;-74
2022/04/07 09:03:44;;;;;;;1.38;0.60;;;15.40;1.00;;;;;;5054691;28;20613;-72
2022/04/07 09:06:11;;;;;;;2.00;0.82;;;16.10;1.00;;;;;;5054287;28;20202;-72
2022/04/07 09:08:40;;;;;;;2.35;0.80;;;16.50;1.00;;;;;;5054885;28;20268;-73
2022/04/07 09:11:10;;;;;;;2.83;0.77;;;15.90;1.00;;;;;;5054477;28;20199;-73
2022/04/07 09:13:39;;;;;;;1.35;0.80;;;15.80;1.00;;;;;;5054336;28;20199;-72
2022/04/07 09:16:10;;;;;;;1.30;0.75;;;15.80;1.00;;;;;;5054212;28;20568;-72
2022/04/07 09:18:37;;;;;;;1.58;0.65;;;16.00;1.00;;;;;;5054314;28;20282;-71
2022/04/07 09:21:05;;;;;;;3.25;0.95;;;16.10;1.00;;;;;;5054167;28;20252;-73
2022/04/07 09:23:38;;;;;;;0.60;0.60;;;16.30;1.00;;;;;;5054564;28;20264;-72
2022/04/07 09:26:05;;;;;;;0.90;0.75;;;16.60;1.00;;;;;;5054350;28;20211;-74
2022/04/07 09:28:33;;;;;;;1.48;0.82;;;16.90;1.00;;;;;;5054379;28;20272;-72
2022/04/07 09:31:01;;;;;;;1.63;0.80;;;17.10;1.00;;;;;;5054018;28;20199;-70
2022/04/07 09:33:29;;;;;;;1.25;0.80;;;16.80;1.00;;;;;;5053850;28;20268;-73
2022/04/07 09:36:01;;;;;;;1.63;0.80;;;16.70;1.00;;;;;;5053826;28;20234;-72
2022/04/07 09:38:30;;;;;;;0.63;0.60;;;17.10;1.00;;;;;;5053733;28;20207;-72
2022/04/07 09:41:04;;;;;;;7.85;1.15;;;17.40;1.00;;;;;;5054205;28;20206;-73
2022/04/07 09:43:41;;;;;;;1.88;0.80;;;18.70;1.00;;;;;;5057804;28;20232;-74
2022/04/07 09:46:09;;;;;;;0.98;0.80;;;18.40;1.00;;;;;;5053280;28;20203;-73
2022/04/07 09:48:37;;;;;;;12.27;4.70;;;17.90;1.00;;;;;;5051950;28;20207;-71
2022/04/07 09:51:05;;;;;;;4.32;1.05;;;17.60;1.00;;;;;;5053159;28;20213;-74
2022/04/07 09:53:37;;;;;;;3.03;0.70;;;18.40;1.00;;;;;;5053938;28;20206;-72
2022/04/07 09:56:05;;;;;;;1.27;0.90;;;18.80;1.00;;;;;;5053751;28;20365;-73
2022/04/07 09:58:35;;;;;;;1.20;0.90;;;20.20;1.00;;;;;;5053461;28;20584;-72
2022/04/07 10:01:03;;;;;;;1.70;1.30;;;18.80;1.00;;;;;;5053250;28;20253;-72
2022/04/07 10:03:31;;;;;;;1.45;0.85;;;20.40;1.00;;;;;;5052414;28;20691;-73
2022/04/07 10:05:59;;;;;;;2.58;1.45;;;19.60;1.00;;;;;;5053594;28;20302;-72
2022/04/07 10:08:26;;;;;;;2.97;2.67;;;18.60;1.00;;;;;;5053191;28;20206;-72
2022/04/07 10:10:53;;;;;;;1.50;1.13;;;18.10;1.00;;;;;;5053322;28;20253;-73
2022/04/07 10:13:21;;;;;;;6.43;2.45;;;18.90;1.00;;;;;;5053023;28;20207;-72
2022/04/07 10:15:51;;;;;;;4.05;2.28;;;20.10;1.00;;;;;;5053476;28;20238;-72
2022/04/07 10:18:25;;;;;;;3.20;1.30;;;22.50;1.00;;;;;;5052743;28;20203;-72
2022/04/07 10:20:57;;;;;;;2.45;1.25;;;22.00;1.00;;;;;;5058205;28;20221;-72
2022/04/07 10:23:47;;;;;;;2.67;2.42;;;20.60;1.00;;;;;;5072904;28;20206;-72
2022/04/07 10:26:16;;;;;;;1.92;1.20;;;20.60;1.00;;;;;;5073020;28;20214;-72
2022/04/07 10:28:43;;;;;;;1.67;1.38;;;22.60;1.00;;;;;;5073542;28;20263;-77
2022/04/07 10:31:16;;;;;;;3.67;2.30;;;23.30;1.00;;;;;;5072973;28;20208;-76
2022/04/07 10:33:45;;;;;;;2.90;1.17;;;21.00;1.00;;;;;;5073165;28;20202;-73
2022/04/07 10:36:16;;;;;;;3.80;0.90;;;20.00;1.00;;;;;;5072808;28;20236;-73
2022/04/07 10:38:46;;;;;;;5.45;1.90;;;18.90;1.00;;;;;;5073502;28;20233;-72
2022/04/07 10:41:39;;;;;;;2.00;1.00;;;18.80;1.00;;;;;;5072772;28;20733;-72
2022/04/07 10:44:13;;;;;;;1.80;1.63;;;18.40;1.00;;;;;;5072499;28;20202;-72
2022/04/07 10:46:41;;;;;;;1.58;1.00;;;18.10;1.00;;;;;;5072556;28;20228;-74
2022/04/07 10:49:10;;;;;;;0.90;0.68;;;17.90;1.00;;;;;;5072397;28;20622;-73
2022/04/07 10:51:44;;;;;;;1.10;0.95;;;18.00;1.00;;;;;;5072832;28;20202;-73
2022/04/07 10:54:11;;;;;;;6.22;5.28;;;17.80;1.00;;;;;;5072404;28;20560;-71
2022/04/07 10:56:39;;;;;;;1.10;1.00;;;17.80;1.00;;;;;;5072526;28;20322;-72
2022/04/07 10:59:14;;;;;;;2.40;0.98;;;17.60;1.00;;;;;;5072051;28;20256;-71
2022/04/07 11:01:56;;;;;;;2.67;2.05;;;17.70;1.00;;;;;;5072760;28;20202;-72
2022/04/07 11:05:04;;;;;;;1.80;1.05;;;17.90;1.00;;;;;;5072030;28;20670;-73
2022/04/07 11:07:39;;;;;;;2.72;2.20;;;17.90;1.00;;;;;;5072497;28;20288;-72
2022/04/07 11:10:13;;;;;;;1.63;1.00;;;18.30;1.00;;;;;;5072531;28;20275;-73
2022/04/07 11:12:44;;;;;;;2.10;0.82;;;18.80;1.00;;;;;;5072696;28;20659;-72
2022/04/07 11:15:22;;;;;;;1.08;0.93;;;18.30;1.00;;;;;;5071382;28;20233;-73
2022/04/07 11:17:53;;;;;;;2.53;1.05;;;18.50;1.00;;;;;;5072049;28;20631;-72
2022/04/07 11:20:21;;;;;;;1.65;1.33;;;18.70;1.00;;;;;;5071628;28;20742;-73
2022/04/07 11:22:55;;;;;;;4.25;1.15;;;19.00;1.00;;;;;;5072066;28;20611;-72
2022/04/07 11:25:24;;;;;;;2.42;1.17;;;19.10;1.00;;;;;;5071679;28;20268;-73
2022/04/07 11:28:10;;;;;;;9.52;1.10;;;19.50;1.00;;;;;;5071919;28;20252;-70
2022/04/07 11:30:41;;;;;;;4.70;1.00;;;19.40;1.00;;;;;;5071465;28;20673;-71
2022/04/07 11:33:40;;;;;;;3.80;0.85;;;18.90;1.00;;;;;;5071546;28;20199;-72
2022/04/07 11:36:34;;;;;;;3.00;0.90;;;19.30;1.00;;;;;;5071396;28;20234;-73
2022/04/07 11:39:02;;;;;;;2.90;0.85;;;19.10;1.00;;;;;;5058141;28;20248;-73
2022/04/07 11:41:41;;;;;;;1.10;1.00;;;19.10;1.00;;;;;;5071563;28;20292;-72
2022/04/07 11:44:12;;;;;;;1.50;0.90;;;19.40;1.00;;;;;;5070977;28;20207;-72
2022/04/07 11:46:40;;;;;;;1.00;0.70;;;19.70;1.00;;;;;;5071491;28;20636;-70
2022/04/07 11:49:11;;;;;;;1.88;0.80;;;19.80;1.00;;;;;;5071187;28;20202;-72
2022/04/07 11:51:39;;;;;;;4.03;0.82;;;19.80;1.00;;;;;;5071528;28;20281;-72
2022/04/07 11:54:07;;;;;;;2.97;0.88;;;20.00;1.00;;;;;;5070880;28;20678;-73
2022/04/07 11:56:38;;;;;;;0.75;0.57;;;19.90;1.00;;;;;;5071392;28;20234;-72
2022/04/07 11:59:07;;;;;;;2.60;0.80;;;20.00;1.00;;;;;;5071319;28;20288;-79
2022/04/07 12:01:37;;;;;;;3.90;1.42;;;20.00;1.00;;;;;;5071362;28;20293;-78
2022/04/07 12:04:06;;;;;;;8.30;1.25;;;19.80;1.00;;;;;;5071292;28;20359;-78
2022/04/07 12:06:37;;;;;;;2.10;1.45;;;19.80;1.00;;;;;;5071186;28;20222;-80
2022/04/07 12:09:05;;;;;;;1.10;0.85;;;20.00;1.00;;;;;;5071417;28;20423;-75
2022/04/07 12:11:35;;;;;;;1.10;0.77;;;20.10;1.00;;;;;;5071469;28;20198;-77
2022/04/07 12:14:05;;;;;;;2.05;1.02;;;20.30;1.00;;;;;;5070949;28;20251;-74
2022/04/07 12:16:34;;;;;;;2.28;1.67;;;20.50;1.00;;;;;;5071222;28;20238;-75
2022/04/07 12:19:02;;;;;;;0.98;0.57;;;20.60;1.00;;;;;;5071154;28;20247;-73
2022/04/07 12:21:30;;;;;;;3.05;0.60;;;20.70;1.00;;;;;;5067466;28;20265;-74
2022/04/07 12:24:09;;;;;;;1.30;1.05;;;21.00;1.00;;;;;;5071011;28;20252;-78
2022/04/07 12:26:41;;;;;;;6.82;0.88;;;21.10;1.00;;;;;;5070832;28;20289;-73
2022/04/07 12:29:08;;;;;;;1.75;0.70;;;20.70;1.00;;;;;;5070485;28;20761;-75
2022/04/07 12:31:35;;;;;;;1.52;1.05;;;20.90;1.00;;;;;;5070925;28;20568;-74
2022/04/07 12:34:09;;;;;;;1.40;1.13;;;20.70;1.00;;;;;;5071016;28;20248;-74
2022/04/07 12:36:38;;;;;;;1.67;0.50;;;21.00;1.00;;;;;;5070767;28;20701;-74
2022/04/07 12:39:08;;;;;;;3.53;1.15;;;20.90;1.00;;;;;;5071114;28;20205;-75
2022/04/07 12:41:41;;;;;;;2.28;0.52;;;20.80;1.00;;;;;;5070898;28;20275;-72
2022/04/07 12:44:10;;;;;;;12.00;1.02;;;21.10;1.00;;;;;;5070338;28;20202;-75
2022/04/07 12:46:47;;;;;;;3.40;1.65;;;21.20;1.00;;;;;;5070745;28;20214;-75
2022/04/07 12:49:15;;;;;;;3.20;1.15;;;21.20;1.00;;;;;;5070603;28;20255;-76
2022/04/07 12:51:43;;;;;;;3.15;0.60;;;20.90;1.00;;;;;;5070846;28;20214;-74
2022/04/07 12:54:12;;;;;;;1.42;0.90;;;20.80;1.00;;;;;;5070369;28;20210;-71
2022/04/07 12:56:42;;;;;;;5.72;1.30;;;20.90;1.00;;;;;;5070623;28;20269;-75
2022/04/07 12:59:11;;;;;;;2.63;0.88;;;21.00;1.00;;;;;;5070191;28;20248;-75
2022/04/07 13:01:39;;;;;;;5.05;0.85;;;20.90;1.00;;;;;;5070638;28;20206;-75
2022/04/07 13:04:08;;;;;;;0.85;0.60;;;20.80;1.00;;;;;;5070532;28;20260;-74
2022/04/07 13:06:36;;;;;;;5.38;0.85;;;20.80;1.00;;;;;;5070491;28;20677;-74
2022/04/07 13:09:05;;;;;;;1.02;0.88;;;20.70;1.00;;;;;;5070737;28;20202;-74